Time;durP1;ratioP1;P1;durP2;ratioP2;P2;SDS_P1;SDS_P2;PMS_P1;PMS_P2;Temp;Humidity;BMP_temperature;BMP_pressure;BME280_temperature;BME280_humidity;BME280_pressure;Samples;Min_cycle;Max_cycle;Signal;HPM_P1;HPM_P2
2024/03/03 00:00:12;;;;;;;3.55;3.35;;;8.70;99.90;;;;;;5080605;28;20402;-75
2024/03/03 00:02:38;;;;;;;4.40;4.10;;;8.70;99.90;;;;;;5078669;28;20216;-74
2024/03/03 00:05:05;;;;;;;5.07;4.68;;;8.60;99.90;;;;;;5080629;28;20194;-75
2024/03/03 00:07:32;;;;;;;4.85;4.45;;;8.50;99.90;;;;;;5080546;28;20955;-74
2024/03/03 00:09:59;;;;;;;5.10;4.70;;;8.40;99.90;;;;;;5079844;28;20242;-76
2024/03/03 00:12:27;;;;;;;5.55;5.15;;;8.30;99.90;;;;;;5074940;28;20681;-74
2024/03/03 00:14:54;;;;;;;6.63;4.80;;;8.30;99.90;;;;;;5079246;28;20221;-77
2024/03/03 00:17:22;;;;;;;5.43;4.93;;;8.20;99.90;;;;;;5080974;28;20256;-75
2024/03/03 00:19:49;;;;;;;4.28;3.97;;;8.20;99.90;;;;;;5078118;28;20217;-74
2024/03/03 00:22:16;;;;;;;4.63;4.32;;;8.20;99.90;;;;;;5076263;28;20637;-75
2024/03/03 00:24:43;;;;;;;4.30;3.97;;;8.30;99.90;;;;;;5079430;28;20767;-75
2024/03/03 00:27:10;;;;;;;3.80;3.50;;;8.30;99.90;;;;;;5081180;28;20232;-75
2024/03/03 00:29:37;;;;;;;3.28;2.83;;;8.40;99.90;;;;;;5081407;28;20248;-76
2024/03/03 00:32:04;;;;;;;3.75;3.50;;;8.40;99.90;;;;;;5082672;28;20229;-75
2024/03/03 00:34:33;;;;;;;3.50;3.20;;;8.50;99.90;;;;;;5081671;28;20310;-77
2024/03/03 00:37:00;;;;;;;3.78;3.55;;;8.50;99.90;;;;;;5082792;28;20351;-74
2024/03/03 00:39:26;;;;;;;3.90;3.70;;;8.40;99.90;;;;;;5081414;28;20248;-73
2024/03/03 00:41:53;;;;;;;4.00;3.70;;;8.40;99.90;;;;;;5082119;28;20248;-75
2024/03/03 00:44:20;;;;;;;4.07;3.78;;;8.30;99.90;;;;;;5081225;28;20201;-76
2024/03/03 00:46:47;;;;;;;3.20;3.00;;;8.30;99.90;;;;;;5080996;28;20328;-76
2024/03/03 00:49:14;;;;;;;3.33;3.13;;;8.30;99.90;;;;;;5083214;28;20217;-75
2024/03/03 00:51:43;;;;;;;3.25;3.05;;;8.30;99.90;;;;;;5080774;28;20229;-74
2024/03/03 00:54:10;;;;;;;3.47;3.22;;;8.30;99.90;;;;;;5080004;28;20256;-75
2024/03/03 00:56:37;;;;;;;3.30;3.10;;;8.30;99.90;;;;;;5078953;28;20217;-74
2024/03/03 00:59:04;;;;;;;3.42;3.10;;;8.30;99.90;;;;;;5083298;28;20715;-75
2024/03/03 01:01:31;;;;;;;3.92;3.53;;;8.30;99.90;;;;;;5081797;28;20301;-75
2024/03/03 01:03:58;;;;;;;4.13;3.90;;;8.30;99.90;;;;;;5081129;28;20225;-74
2024/03/03 01:06:25;;;;;;;3.58;3.28;;;8.30;99.90;;;;;;5083028;28;20217;-74
2024/03/03 01:08:53;;;;;;;3.28;2.85;;;8.40;99.90;;;;;;5080089;28;20325;-75
2024/03/03 01:11:20;;;;;;;3.78;2.60;;;8.60;99.90;;;;;;5080354;28;20304;-75
2024/03/03 01:13:47;;;;;;;2.75;2.55;;;8.90;99.90;;;;;;5083333;28;20210;-75
2024/03/03 01:16:14;;;;;;;2.95;2.72;;;9.20;99.90;;;;;;5081119;28;20256;-75
2024/03/03 01:18:41;;;;;;;4.28;2.72;;;9.40;99.90;;;;;;5083105;28;20225;-74
2024/03/03 01:21:08;;;;;;;2.92;2.72;;;9.50;99.90;;;;;;5083032;28;20251;-75
2024/03/03 01:23:35;;;;;;;3.10;2.50;;;9.60;99.90;;;;;;5082198;28;20612;-77
2024/03/03 01:26:04;;;;;;;2.60;2.40;;;9.60;99.90;;;;;;5083091;28;20201;-75
2024/03/03 01:28:31;;;;;;;2.50;2.30;;;9.60;99.90;;;;;;5083908;28;20237;-77
2024/03/03 01:30:58;;;;;;;2.42;2.22;;;9.60;99.90;;;;;;5079301;28;20299;-75
2024/03/03 01:33:25;;;;;;;3.45;2.53;;;9.60;99.90;;;;;;5056639;28;20343;-75
2024/03/03 01:35:52;;;;;;;2.90;2.30;;;9.50;99.90;;;;;;5059996;28;20679;-75
2024/03/03 01:38:19;;;;;;;2.20;2.10;;;9.50;99.90;;;;;;5077761;28;20248;-76
2024/03/03 01:40:53;;;;;;;3.30;2.40;;;9.50;99.90;;;;;;5077884;28;20288;-74
2024/03/03 01:43:21;;;;;;;3.10;2.30;;;9.40;99.90;;;;;;5061778;28;20222;-76
2024/03/03 01:45:48;;;;;;;3.05;2.50;;;9.50;99.90;;;;;;5062978;28;20208;-76
2024/03/03 01:48:15;;;;;;;2.55;2.38;;;9.50;99.90;;;;;;5078985;28;20302;-78
2024/03/03 01:50:43;;;;;;;2.63;2.45;;;9.50;99.90;;;;;;5080443;28;20245;-76
2024/03/03 01:53:13;;;;;;;3.13;2.90;;;9.40;99.90;;;;;;5080029;28;20245;-76
2024/03/03 01:55:41;;;;;;;3.42;2.83;;;9.20;99.90;;;;;;5082208;28;20201;-76
2024/03/03 01:58:11;;;;;;;2.78;2.60;;;9.00;99.90;;;;;;5081041;28;20308;-75
2024/03/03 02:00:39;;;;;;;3.45;2.97;;;9.00;99.90;;;;;;5080886;28;20255;-76
2024/03/03 02:03:09;;;;;;;2.40;2.17;;;9.10;99.90;;;;;;5079133;28;20314;-75
2024/03/03 02:05:38;;;;;;;2.80;2.60;;;9.20;99.90;;;;;;5081334;28;20244;-76
2024/03/03 02:08:06;;;;;;;4.38;3.00;;;9.30;99.90;;;;;;5078787;28;20302;-76
2024/03/03 02:10:34;;;;;;;3.33;3.13;;;9.10;99.90;;;;;;5079991;28;20221;-74
2024/03/03 02:13:01;;;;;;;3.08;2.88;;;9.00;99.90;;;;;;5079211;28;20263;-75
2024/03/03 02:15:28;;;;;;;3.60;3.30;;;8.90;99.90;;;;;;5082144;28;20266;-76
2024/03/03 02:17:57;;;;;;;3.88;3.60;;;8.70;99.90;;;;;;5080895;28;21213;-75
2024/03/03 02:20:24;;;;;;;3.03;2.83;;;8.60;99.90;;;;;;5079351;28;20343;-75
2024/03/03 02:22:53;;;;;;;2.40;2.30;;;8.60;99.90;;;;;;5079227;28;20261;-75
2024/03/03 02:25:20;;;;;;;2.08;1.98;;;8.70;99.90;;;;;;5081972;28;20267;-77
2024/03/03 02:27:48;;;;;;;2.30;2.20;;;8.80;99.90;;;;;;5077385;28;20252;-74
2024/03/03 02:30:16;;;;;;;2.35;2.22;;;9.00;99.90;;;;;;5081516;28;20245;-74
2024/03/03 02:32:43;;;;;;;2.30;2.10;;;9.00;99.90;;;;;;5079724;28;20304;-75
2024/03/03 02:35:10;;;;;;;2.33;2.17;;;9.10;99.90;;;;;;5080172;28;20233;-76
2024/03/03 02:37:37;;;;;;;3.22;2.92;;;9.10;99.90;;;;;;5076649;28;20296;-75
2024/03/03 02:40:07;;;;;;;4.03;3.63;;;8.90;99.90;;;;;;5075122;28;20282;-75
2024/03/03 02:42:34;;;;;;;3.47;3.28;;;8.80;99.90;;;;;;5079702;28;20288;-74
2024/03/03 02:45:01;;;;;;;3.60;3.30;;;8.70;99.90;;;;;;5081722;28;20222;-75
2024/03/03 02:47:28;;;;;;;4.10;3.80;;;8.50;99.90;;;;;;5079805;28;20225;-76
2024/03/03 02:49:55;;;;;;;4.65;4.25;;;8.50;99.90;;;;;;5074718;28;20274;-77
2024/03/03 02:52:22;;;;;;;4.65;4.20;;;8.40;99.90;;;;;;5074435;28;20791;-75
2024/03/03 02:54:49;;;;;;;4.45;3.83;;;8.30;99.90;;;;;;5078068;28;20340;-75
2024/03/03 02:57:17;;;;;;;4.82;4.43;;;8.20;99.90;;;;;;5078074;28;20245;-75
2024/03/03 02:59:44;;;;;;;4.60;4.20;;;8.20;99.90;;;;;;5077314;28;20229;-74
2024/03/03 03:02:11;;;;;;;5.20;4.80;;;8.20;99.90;;;;;;5079670;28;20240;-75
2024/03/03 03:04:38;;;;;;;3.78;3.47;;;8.20;99.90;;;;;;5079183;28;20205;-75
2024/03/03 03:07:05;;;;;;;3.28;3.08;;;8.20;99.90;;;;;;5079234;28;20252;-75
2024/03/03 03:09:32;;;;;;;3.22;3.03;;;8.20;99.90;;;;;;5078143;28;20225;-74
2024/03/03 03:11:59;;;;;;;4.00;3.65;;;8.30;99.90;;;;;;5075052;28;20754;-74
2024/03/03 03:14:28;;;;;;;4.00;3.70;;;8.30;99.90;;;;;;5077635;28;20229;-75
2024/03/03 03:16:55;;;;;;;3.78;3.47;;;8.30;99.90;;;;;;5078611;28;20221;-77
2024/03/03 03:19:23;;;;;;;3.75;3.40;;;8.30;99.90;;;;;;5076897;28;20309;-77
2024/03/03 03:21:50;;;;;;;3.45;3.20;;;8.30;99.90;;;;;;5078614;28;20221;-77
2024/03/03 03:24:17;;;;;;;3.63;3.33;;;8.30;99.90;;;;;;5078748;28;20225;-76
2024/03/03 03:26:44;;;;;;;4.10;3.75;;;8.30;99.90;;;;;;5073294;28;20256;-74
2024/03/03 03:29:10;;;;;;;4.25;3.45;;;8.30;99.90;;;;;;5078346;28;20308;-75
2024/03/03 03:31:39;;;;;;;3.67;3.38;;;8.20;99.90;;;;;;5078315;28;20681;-76
2024/03/03 03:34:06;;;;;;;3.60;3.40;;;8.20;99.90;;;;;;5081818;28;20277;-75
2024/03/03 03:36:33;;;;;;;2.97;2.80;;;8.20;99.90;;;;;;5082648;28;20236;-76
2024/03/03 03:39:01;;;;;;;2.60;2.40;;;8.20;99.90;;;;;;5082163;28;21330;-76
2024/03/03 03:41:28;;;;;;;3.00;2.80;;;8.30;99.90;;;;;;5081432;28;20309;-76
2024/03/03 03:43:55;;;;;;;3.20;3.00;;;8.30;99.90;;;;;;5079459;28;20202;-74
2024/03/03 03:46:22;;;;;;;3.75;3.30;;;8.30;99.90;;;;;;5082200;28;20241;-75
2024/03/03 03:48:50;;;;;;;3.60;3.30;;;8.30;99.90;;;;;;5084693;28;20270;-75
2024/03/03 03:51:17;;;;;;;3.67;3.40;;;8.30;99.90;;;;;;5082071;28;21817;-76
2024/03/03 03:53:44;;;;;;;3.25;3.05;;;8.30;99.90;;;;;;5086036;28;20243;-76
2024/03/03 03:56:11;;;;;;;2.53;2.40;;;8.30;99.90;;;;;;5087288;28;20286;-75
2024/03/03 03:58:38;;;;;;;2.90;2.70;;;8.30;99.90;;;;;;5089584;28;20697;-76
2024/03/03 04:01:05;;;;;;;2.75;2.65;;;8.30;99.90;;;;;;5087667;28;20194;-76
2024/03/03 04:03:32;;;;;;;2.38;2.28;;;8.30;99.90;;;;;;5082500;28;20233;-76
2024/03/03 04:06:00;;;;;;;2.75;2.60;;;8.30;99.90;;;;;;5082049;28;20294;-75
2024/03/03 04:08:27;;;;;;;3.10;2.90;;;8.30;99.90;;;;;;5081223;28;20245;-76
2024/03/03 04:10:54;;;;;;;2.45;2.35;;;8.30;99.90;;;;;;5079856;28;20230;-75
2024/03/03 04:13:21;;;;;;;2.60;2.50;;;8.30;99.90;;;;;;5080680;28;20309;-74
2024/03/03 04:15:48;;;;;;;2.72;2.63;;;8.30;99.90;;;;;;5079694;28;20292;-75
2024/03/03 04:18:15;;;;;;;2.83;2.63;;;8.30;99.90;;;;;;5078997;28;20715;-75
2024/03/03 04:20:42;;;;;;;3.28;2.90;;;8.30;99.90;;;;;;5081451;28;20245;-76
2024/03/03 04:23:10;;;;;;;3.10;2.90;;;8.30;99.90;;;;;;5078492;28;20312;-75
2024/03/03 04:25:37;;;;;;;3.10;2.90;;;8.30;99.90;;;;;;5082558;28;20638;-75
2024/03/03 04:28:04;;;;;;;2.70;2.60;;;8.30;99.90;;;;;;5080665;28;20983;-76
2024/03/03 04:30:30;;;;;;;2.90;2.70;;;8.20;99.90;;;;;;5082534;28;20685;-74
2024/03/03 04:32:57;;;;;;;2.92;2.72;;;8.20;99.90;;;;;;5076856;28;20229;-75
2024/03/03 04:35:24;;;;;;;3.63;3.33;;;8.20;99.90;;;;;;5082805;28;21149;-76
2024/03/03 04:37:51;;;;;;;3.70;3.40;;;8.20;99.90;;;;;;5078453;28;20245;-75
2024/03/03 04:40:19;;;;;;;3.03;2.78;;;8.20;99.90;;;;;;5082677;28;20249;-75
2024/03/03 04:42:47;;;;;;;3.60;3.30;;;8.20;99.90;;;;;;5078704;28;20245;-75
2024/03/03 04:45:14;;;;;;;3.47;3.00;;;8.10;99.90;;;;;;5080688;28;20225;-75
2024/03/03 04:47:41;;;;;;;3.40;3.10;;;8.10;99.90;;;;;;5079638;28;20543;-75
2024/03/03 04:50:09;;;;;;;2.80;2.70;;;8.10;99.90;;;;;;5082830;28;20278;-75
2024/03/03 04:52:37;;;;;;;3.30;3.10;;;8.10;99.90;;;;;;5077842;28;20308;-75
2024/03/03 04:55:05;;;;;;;3.47;3.28;;;8.10;99.90;;;;;;5081128;28;21170;-75
2024/03/03 04:57:34;;;;;;;3.10;2.90;;;8.10;99.90;;;;;;5080934;28;20316;-75
2024/03/03 05:00:00;;;;;;;2.65;2.50;;;8.10;99.90;;;;;;5081809;28;20739;-74
2024/03/03 05:02:27;;;;;;;3.35;3.05;;;8.10;99.90;;;;;;5074512;28;20321;-75
2024/03/03 05:04:54;;;;;;;2.53;2.42;;;8.20;99.90;;;;;;5081004;28;20650;-74
2024/03/03 05:07:21;;;;;;;3.03;2.80;;;8.20;99.90;;;;;;5080322;28;20249;-75
2024/03/03 05:09:48;;;;;;;2.70;2.50;;;8.20;99.90;;;;;;5081046;28;20292;-76
2024/03/03 05:12:15;;;;;;;2.72;2.63;;;8.20;99.90;;;;;;5078984;28;20225;-74
2024/03/03 05:14:43;;;;;;;3.20;3.00;;;8.20;99.90;;;;;;5081548;28;23209;-75
2024/03/03 05:17:10;;;;;;;2.97;2.80;;;8.20;99.90;;;;;;5081154;28;20701;-76
2024/03/03 05:19:37;;;;;;;2.85;2.65;;;8.20;99.90;;;;;;5081769;28;20249;-75
2024/03/03 05:22:04;;;;;;;2.53;2.42;;;8.10;99.90;;;;;;5081162;28;20288;-76
2024/03/03 05:24:31;;;;;;;2.92;2.72;;;8.10;99.90;;;;;;5081980;28;20655;-75
2024/03/03 05:26:58;;;;;;;3.28;3.08;;;8.10;99.90;;;;;;5083010;28;20310;-75
2024/03/03 05:29:26;;;;;;;3.60;3.30;;;8.10;99.90;;;;;;5082113;28;20248;-75
2024/03/03 05:31:54;;;;;;;3.15;2.95;;;8.00;99.90;;;;;;5080853;28;20230;-75
2024/03/03 05:34:21;;;;;;;3.53;3.22;;;8.00;99.90;;;;;;5077644;28;20292;-74
2024/03/03 05:36:49;;;;;;;3.13;2.92;;;8.00;99.90;;;;;;5079472;28;20304;-74
2024/03/03 05:39:17;;;;;;;2.72;2.63;;;8.00;99.90;;;;;;5082954;28;20249;-75
2024/03/03 05:41:44;;;;;;;3.20;3.00;;;8.00;99.90;;;;;;5079332;28;20215;-75
2024/03/03 05:44:11;;;;;;;2.95;2.75;;;8.00;99.90;;;;;;5082466;28;20229;-76
2024/03/03 05:46:38;;;;;;;3.63;3.28;;;8.00;99.90;;;;;;5080169;28;20221;-76
2024/03/03 05:49:07;;;;;;;4.13;3.72;;;8.00;99.90;;;;;;5081330;28;20248;-75
2024/03/03 05:51:33;;;;;;;3.42;3.22;;;8.10;99.90;;;;;;5081238;28;20237;-77
2024/03/03 05:54:01;;;;;;;4.85;3.88;;;8.00;99.90;;;;;;5080417;28;20302;-75
2024/03/03 05:56:28;;;;;;;4.20;3.75;;;8.10;99.90;;;;;;5082108;28;20812;-75
2024/03/03 05:58:55;;;;;;;3.20;3.00;;;8.00;99.90;;;;;;5082070;28;20257;-75
2024/03/03 06:01:22;;;;;;;3.53;3.22;;;8.00;99.90;;;;;;5081220;28;20231;-76
2024/03/03 06:03:49;;;;;;;4.22;3.75;;;8.00;99.90;;;;;;5079809;28;20256;-75
2024/03/03 06:06:17;;;;;;;3.40;3.20;;;8.00;99.90;;;;;;5081165;28;20198;-75
2024/03/03 06:08:45;;;;;;;3.85;3.55;;;8.00;99.90;;;;;;5077633;28;20656;-76
2024/03/03 06:11:12;;;;;;;3.00;2.90;;;8.00;99.90;;;;;;5077400;28;20204;-77
2024/03/03 06:13:39;;;;;;;3.45;3.25;;;8.00;99.90;;;;;;5079340;28;20268;-76
2024/03/03 06:16:06;;;;;;;3.42;3.22;;;8.00;99.90;;;;;;5076936;28;20778;-75
2024/03/03 06:18:33;;;;;;;2.97;2.78;;;8.10;99.90;;;;;;5079603;28;20251;-75
2024/03/03 06:21:00;;;;;;;3.92;3.63;;;8.10;99.90;;;;;;5081108;28;20229;-75
2024/03/03 06:23:28;;;;;;;3.80;3.50;;;8.10;99.90;;;;;;5078198;28;20750;-75
2024/03/03 06:25:55;;;;;;;4.00;3.70;;;8.10;99.90;;;;;;5079158;28;20274;-75
2024/03/03 06:28:22;;;;;;;3.50;3.30;;;8.10;99.90;;;;;;5076613;28;20245;-75
2024/03/03 06:30:49;;;;;;;3.00;2.80;;;8.10;99.90;;;;;;5081599;28;20715;-75
2024/03/03 06:33:18;;;;;;;3.15;2.95;;;8.20;99.90;;;;;;5077102;28;20348;-75
2024/03/03 06:35:46;;;;;;;3.90;3.60;;;8.20;99.90;;;;;;5081884;28;20228;-75
2024/03/03 06:38:13;;;;;;;3.55;3.35;;;8.20;99.90;;;;;;5080506;28;20221;-75
2024/03/03 06:40:42;;;;;;;3.63;3.42;;;8.20;99.90;;;;;;5079037;28;20248;-76
2024/03/03 06:43:08;;;;;;;3.58;3.28;;;8.20;99.90;;;;;;5076848;28;20259;-74
2024/03/03 06:45:36;;;;;;;4.78;3.75;;;8.20;99.90;;;;;;5080266;28;20228;-75
2024/03/03 06:48:03;;;;;;;3.60;3.30;;;8.10;99.90;;;;;;5080030;28;20240;-75
2024/03/03 06:50:30;;;;;;;3.70;3.50;;;8.20;99.90;;;;;;5079069;28;20218;-74
2024/03/03 06:52:56;;;;;;;3.40;3.20;;;8.20;99.90;;;;;;5079089;28;20275;-75
2024/03/03 06:55:23;;;;;;;3.42;3.20;;;8.20;99.90;;;;;;5078111;28;20298;-74
2024/03/03 06:57:52;;;;;;;3.78;3.55;;;8.20;99.90;;;;;;5079865;28;20723;-77
2024/03/03 07:00:19;;;;;;;4.03;3.70;;;8.20;99.90;;;;;;5078415;28;20313;-76
2024/03/03 07:03:12;;;;;;;4.80;4.40;;;8.20;99.90;;;;;;5076279;28;20213;-75
2024/03/03 07:05:40;;;;;;;3.80;3.50;;;8.10;99.90;;;;;;5080852;28;20305;-75
2024/03/03 07:08:07;;;;;;;3.72;3.42;;;8.20;99.90;;;;;;5078241;28;20221;-74
2024/03/03 07:10:34;;;;;;;3.83;3.63;;;8.20;99.90;;;;;;5080478;28;20244;-75
2024/03/03 07:13:03;;;;;;;3.10;2.90;;;8.20;99.90;;;;;;5079509;28;20221;-76
2024/03/03 07:15:29;;;;;;;3.40;3.20;;;8.30;99.90;;;;;;5081530;28;20193;-75
2024/03/03 07:17:56;;;;;;;3.22;3.03;;;8.40;99.90;;;;;;5078733;28;20245;-75
2024/03/03 07:20:23;;;;;;;3.28;3.08;;;8.50;99.90;;;;;;5079498;28;20225;-74
2024/03/03 07:22:50;;;;;;;3.47;3.28;;;8.60;99.90;;;;;;5079915;28;20715;-77
2024/03/03 07:25:17;;;;;;;3.35;3.15;;;8.70;99.90;;;;;;5080069;28;20243;-75
2024/03/03 07:27:44;;;;;;;3.10;2.90;;;8.70;99.90;;;;;;5079988;28;20294;-75
2024/03/03 07:30:13;;;;;;;4.07;3.50;;;8.80;99.90;;;;;;5078996;28;20221;-75
2024/03/03 07:32:41;;;;;;;3.50;3.20;;;8.90;99.90;;;;;;5077853;28;20249;-75
2024/03/03 07:35:09;;;;;;;3.45;3.25;;;8.90;99.90;;;;;;5080135;28;20201;-74
2024/03/03 07:37:36;;;;;;;3.10;2.90;;;9.10;99.90;;;;;;5080781;28;20214;-75
2024/03/03 07:40:05;;;;;;;4.28;3.90;;;9.10;99.90;;;;;;5079654;28;20306;-75
2024/03/03 07:42:32;;;;;;;3.53;3.33;;;9.20;99.90;;;;;;5079634;28;20233;-76
2024/03/03 07:44:59;;;;;;;3.58;3.38;;;9.30;99.90;;;;;;5075973;28;20205;-75
2024/03/03 07:47:27;;;;;;;3.70;3.40;;;9.50;99.90;;;;;;5081087;28;20249;-75
2024/03/03 07:49:54;;;;;;;3.60;3.30;;;9.90;99.90;;;;;;5078252;28;20279;-75
2024/03/03 07:52:21;;;;;;;3.50;3.30;;;10.10;99.90;;;;;;5078200;28;20249;-75
2024/03/03 07:54:49;;;;;;;3.35;3.05;;;10.50;99.90;;;;;;5080733;28;20205;-76
2024/03/03 07:57:16;;;;;;;3.60;3.33;;;10.60;99.90;;;;;;5078268;28;20214;-74
2024/03/03 07:59:43;;;;;;;3.63;3.38;;;10.40;99.90;;;;;;5078744;28;20294;-76
2024/03/03 08:02:10;;;;;;;3.38;3.08;;;10.20;99.90;;;;;;5077928;28;20259;-78
2024/03/03 08:04:38;;;;;;;3.30;3.10;;;10.00;99.90;;;;;;5076507;28;20206;-74
2024/03/03 08:07:05;;;;;;;3.45;3.25;;;9.90;99.90;;;;;;5078682;28;20229;-77
2024/03/03 08:09:32;;;;;;;3.55;3.33;;;9.80;99.90;;;;;;5075718;28;20221;-75
2024/03/03 08:11:59;;;;;;;3.45;3.17;;;9.70;99.90;;;;;;5077969;28;20259;-76
2024/03/03 08:14:26;;;;;;;4.20;3.65;;;9.60;99.90;;;;;;5075913;28;20190;-76
2024/03/03 08:16:53;;;;;;;3.90;3.60;;;9.60;99.90;;;;;;5080339;28;20299;-75
2024/03/03 08:19:20;;;;;;;3.28;3.08;;;9.50;99.90;;;;;;5077788;28;20280;-76
2024/03/03 08:21:48;;;;;;;3.90;3.60;;;9.50;99.90;;;;;;5078587;28;20218;-75
2024/03/03 08:24:16;;;;;;;3.90;3.60;;;9.40;99.90;;;;;;5081224;28;20720;-75
2024/03/03 08:26:47;;;;;;;3.25;3.00;;;9.40;99.90;;;;;;5079813;28;20832;-76
2024/03/03 08:29:14;;;;;;;4.07;3.67;;;9.40;99.90;;;;;;5089814;28;20809;-75
2024/03/03 08:31:42;;;;;;;3.92;3.53;;;9.40;99.90;;;;;;5085436;28;20218;-76
2024/03/03 08:34:08;;;;;;;3.60;3.40;;;9.40;99.90;;;;;;5087825;28;20286;-75
2024/03/03 08:36:35;;;;;;;3.67;3.42;;;9.40;99.90;;;;;;5082014;28;20245;-76
2024/03/03 08:39:04;;;;;;;3.90;3.60;;;9.40;99.90;;;;;;5084678;28;20240;-75
2024/03/03 08:41:32;;;;;;;4.50;4.10;;;9.50;99.90;;;;;;5082374;28;20213;-76
2024/03/03 08:43:59;;;;;;;3.80;3.30;;;9.50;99.90;;;;;;5083460;28;20284;-75
2024/03/03 08:46:26;;;;;;;4.00;3.70;;;9.50;99.90;;;;;;5080633;28;20233;-75
2024/03/03 08:48:53;;;;;;;4.03;3.72;;;9.60;99.90;;;;;;5084806;28;20217;-76
2024/03/03 08:51:21;;;;;;;3.95;3.75;;;9.70;99.90;;;;;;5083132;28;20221;-75
2024/03/03 08:53:48;;;;;;;4.05;3.75;;;9.70;99.90;;;;;;5083893;28;20293;-75
2024/03/03 08:56:17;;;;;;;4.50;4.15;;;9.80;99.90;;;;;;5077815;28;20209;-76
2024/03/03 08:58:44;;;;;;;4.05;3.75;;;9.70;99.90;;;;;;5083924;28;20197;-76
2024/03/03 09:01:14;;;;;;;4.40;4.10;;;9.70;99.90;;;;;;5079604;28;20237;-75
2024/03/03 09:03:41;;;;;;;4.45;4.15;;;9.60;99.90;;;;;;5084994;28;20280;-76
2024/03/03 09:06:08;;;;;;;3.92;3.63;;;9.60;99.90;;;;;;5083434;28;20205;-75
2024/03/03 09:08:37;;;;;;;4.43;4.13;;;9.60;99.90;;;;;;5084134;28;20225;-76
2024/03/03 09:11:06;;;;;;;4.80;4.40;;;9.70;99.90;;;;;;5079693;28;20274;-76
2024/03/03 09:13:35;;;;;;;4.40;4.10;;;9.70;99.90;;;;;;5086251;28;20636;-77
2024/03/03 09:16:02;;;;;;;4.10;3.80;;;9.80;99.90;;;;;;5083933;28;20203;-75
2024/03/03 09:18:29;;;;;;;3.97;3.67;;;10.10;99.90;;;;;;5084359;28;20675;-75
2024/03/03 09:20:56;;;;;;;4.00;3.70;;;10.40;99.90;;;;;;5082181;28;20254;-75
2024/03/03 09:23:23;;;;;;;4.45;4.03;;;10.60;99.90;;;;;;5082426;28;20241;-77
2024/03/03 09:25:50;;;;;;;4.72;4.32;;;10.60;99.90;;;;;;5084396;28;20200;-76
2024/03/03 09:28:17;;;;;;;3.92;3.63;;;10.90;99.90;;;;;;5081287;28;20281;-75
2024/03/03 09:30:45;;;;;;;4.35;4.05;;;10.80;99.90;;;;;;5081493;28;20286;-75
2024/03/03 09:33:12;;;;;;;5.15;4.75;;;10.70;99.90;;;;;;5082216;28;20241;-76
2024/03/03 09:35:39;;;;;;;5.03;4.53;;;10.50;99.90;;;;;;5078328;28;20205;-76
2024/03/03 09:38:07;;;;;;;3.95;3.65;;;10.30;99.90;;;;;;5079276;28;20213;-76
2024/03/03 09:40:36;;;;;;;5.20;4.72;;;10.20;99.90;;;;;;5079750;28;20333;-77
2024/03/03 09:43:03;;;;;;;5.07;4.68;;;10.20;99.90;;;;;;5075441;28;20252;-74
2024/03/03 09:45:31;;;;;;;5.70;5.07;;;10.10;99.90;;;;;;5081881;28;20328;-74
2024/03/03 09:48:01;;;;;;;4.68;4.07;;;10.00;99.90;;;;;;5077120;28;20769;-75
2024/03/03 09:50:28;;;;;;;4.05;3.85;;;9.80;99.90;;;;;;5080564;28;20221;-74
2024/03/03 09:52:56;;;;;;;3.47;3.22;;;9.70;99.90;;;;;;5078866;28;20241;-75
2024/03/03 09:55:25;;;;;;;4.28;3.70;;;9.60;99.90;;;;;;5079807;28;20280;-75
2024/03/03 09:57:52;;;;;;;3.78;3.58;;;9.70;99.90;;;;;;5076486;28;20317;-74
2024/03/03 10:00:19;;;;;;;4.13;3.83;;;9.70;99.90;;;;;;5077687;28;22448;-75
2024/03/03 10:02:48;;;;;;;3.55;3.35;;;9.80;99.90;;;;;;5078456;28;20221;-74
2024/03/03 10:05:17;;;;;;;3.60;3.40;;;9.70;99.90;;;;;;5077996;28;20225;-74
2024/03/03 10:07:48;;;;;;;3.60;3.40;;;9.80;99.90;;;;;;5079749;28;20221;-74
2024/03/03 10:10:19;;;;;;;3.92;3.63;;;9.80;99.90;;;;;;5074258;28;20209;-76
2024/03/03 10:12:48;;;;;;;3.60;3.30;;;9.90;99.90;;;;;;5077157;28;20214;-75
2024/03/03 10:15:15;;;;;;;3.88;3.58;;;10.10;99.90;;;;;;5078472;28;20959;-74
2024/03/03 10:17:42;;;;;;;3.55;3.35;;;10.20;99.90;;;;;;5073771;28;20267;-77
2024/03/03 10:20:10;;;;;;;3.72;3.45;;;10.30;99.90;;;;;;5075797;28;20260;-75
2024/03/03 10:22:40;;;;;;;3.08;2.83;;;10.50;99.90;;;;;;5074902;28;20228;-76
2024/03/03 10:25:12;;;;;;;3.92;3.55;;;10.60;99.90;;;;;;5078914;28;20194;-75
2024/03/03 10:27:41;;;;;;;3.35;3.03;;;10.80;99.90;;;;;;5075710;28;20209;-75
2024/03/03 10:30:09;;;;;;;3.30;3.10;;;11.10;99.90;;;;;;5077389;28;20252;-74
2024/03/03 10:32:37;;;;;;;3.10;2.90;;;11.20;99.90;;;;;;5079220;28;20209;-74
2024/03/03 10:35:04;;;;;;;3.88;3.58;;;11.40;99.90;;;;;;5071135;28;20301;-74
2024/03/03 10:37:31;;;;;;;4.40;3.67;;;11.50;99.90;;;;;;5074333;28;20244;-74
2024/03/03 10:40:00;;;;;;;3.60;3.30;;;11.70;99.90;;;;;;5074610;28;20295;-77
2024/03/03 10:42:30;;;;;;;3.08;2.88;;;11.60;99.90;;;;;;5072254;28;20225;-73
2024/03/03 10:44:57;;;;;;;4.47;3.70;;;11.50;99.90;;;;;;5073621;28;20251;-74
2024/03/03 10:47:25;;;;;;;3.50;3.20;;;11.40;99.90;;;;;;5073163;28;20221;-75
2024/03/03 10:49:52;;;;;;;3.25;3.05;;;11.30;99.90;;;;;;5073057;28;21005;-73
2024/03/03 10:52:19;;;;;;;3.38;3.17;;;11.20;99.90;;;;;;5073357;28;20322;-74
2024/03/03 10:54:46;;;;;;;3.85;2.92;;;11.20;99.90;;;;;;5078584;28;20221;-74
2024/03/03 10:57:19;;;;;;;3.33;3.03;;;11.10;99.90;;;;;;5073397;28;20221;-75
2024/03/03 10:59:47;;;;;;;3.33;3.13;;;11.00;99.90;;;;;;5072079;28;20244;-75
2024/03/03 11:02:17;;;;;;;3.30;2.95;;;10.90;99.90;;;;;;5074025;28;20653;-76
2024/03/03 11:04:44;;;;;;;3.17;2.95;;;10.80;99.90;;;;;;5085015;28;20221;-76
2024/03/03 11:07:12;;;;;;;3.97;3.53;;;10.70;99.90;;;;;;5074032;28;20309;-75
2024/03/03 11:09:39;;;;;;;3.92;3.63;;;10.70;99.90;;;;;;5076638;28;20228;-74
2024/03/03 11:12:11;;;;;;;2.97;2.70;;;10.70;99.90;;;;;;5069984;28;20218;-74
2024/03/03 11:14:46;;;;;;;3.28;3.05;;;10.80;99.90;;;;;;5054488;28;20858;-75
2024/03/03 11:17:16;;;;;;;3.25;3.05;;;10.90;99.90;;;;;;5053468;28;21879;-75
2024/03/03 11:19:46;;;;;;;3.30;2.88;;;11.10;99.90;;;;;;5051135;28;20345;-76
2024/03/03 11:22:19;;;;;;;2.90;2.70;;;11.30;99.90;;;;;;5048895;28;20229;-75
2024/03/03 11:24:57;;;;;;;2.85;2.65;;;11.60;99.90;;;;;;5055825;28;20292;-77
2024/03/03 11:27:26;;;;;;;3.00;2.80;;;11.80;99.90;;;;;;5069131;28;20268;-75
2024/03/03 11:29:55;;;;;;;3.42;3.05;;;12.10;99.90;;;;;;5052048;28;20222;-75
2024/03/03 11:32:24;;;;;;;3.30;3.08;;;12.20;99.90;;;;;;5059779;28;20225;-76
2024/03/03 11:34:52;;;;;;;3.33;2.75;;;12.20;99.90;;;;;;5070988;28;20236;-75
2024/03/03 11:37:20;;;;;;;3.35;2.70;;;12.20;99.90;;;;;;5071310;28;20217;-76
2024/03/03 11:39:53;;;;;;;2.90;2.67;;;12.20;99.90;;;;;;5070087;28;20233;-74
2024/03/03 11:42:21;;;;;;;3.97;2.60;;;12.20;99.90;;;;;;5071935;28;20258;-75
2024/03/03 11:44:50;;;;;;;2.85;2.65;;;12.10;99.90;;;;;;5074777;28;20288;-73
2024/03/03 11:47:19;;;;;;;3.22;2.92;;;12.10;99.90;;;;;;5072397;28;20225;-73
2024/03/03 11:49:47;;;;;;;3.75;2.97;;;12.10;99.90;;;;;;5074285;28;20224;-75
2024/03/03 11:52:43;;;;;;;4.38;2.90;;;12.10;99.90;;;;;;5074883;28;20245;-73
2024/03/03 11:55:11;;;;;;;3.20;2.67;;;12.10;99.90;;;;;;5070055;28;20257;-74
2024/03/03 11:57:43;;;;;;;3.17;2.35;;;12.10;99.90;;;;;;5071205;28;20229;-73
2024/03/03 12:00:16;;;;;;;2.90;2.33;;;12.10;99.90;;;;;;5078528;28;20304;-73
2024/03/03 12:02:46;;;;;;;2.80;2.33;;;12.20;99.90;;;;;;5079295;28;20213;-74
2024/03/03 12:05:14;;;;;;;3.03;2.67;;;12.60;99.90;;;;;;5078820;28;20202;-74
2024/03/03 12:07:43;;;;;;;3.88;2.60;;;13.00;99.90;;;;;;5071274;28;20378;-74
2024/03/03 12:10:21;;;;;;;2.63;2.42;;;13.20;99.90;;;;;;5072856;28;20214;-73
2024/03/03 12:12:49;;;;;;;2.90;2.63;;;13.50;99.90;;;;;;5071875;28;20858;-76
2024/03/03 12:15:18;;;;;;;2.80;2.40;;;13.70;99.90;;;;;;5080661;28;20762;-76
2024/03/03 12:17:50;;;;;;;3.88;2.65;;;13.90;99.90;;;;;;5077897;28;20217;-76
2024/03/03 12:20:18;;;;;;;3.97;2.72;;;14.00;99.90;;;;;;5073789;28;20217;-74
2024/03/03 12:22:45;;;;;;;2.83;2.53;;;14.20;99.90;;;;;;5072867;28;20224;-76
2024/03/03 12:25:12;;;;;;;2.53;2.33;;;14.10;99.90;;;;;;5071457;28;20274;-74
2024/03/03 12:27:39;;;;;;;2.78;2.42;;;14.00;99.90;;;;;;5062425;28;20230;-73
2024/03/03 12:30:11;;;;;;;3.45;2.80;;;13.90;99.90;;;;;;5049008;28;20757;-74
2024/03/03 12:32:38;;;;;;;2.85;2.65;;;13.90;99.90;;;;;;5058005;28;20662;-73
2024/03/03 12:35:08;;;;;;;2.70;2.45;;;14.10;99.90;;;;;;5058933;28;20233;-75
2024/03/03 12:37:35;;;;;;;2.60;2.40;;;14.20;99.90;;;;;;5060547;28;20225;-76
2024/03/03 12:40:03;;;;;;;2.90;2.35;;;14.40;99.90;;;;;;5059412;28;20313;-73
2024/03/03 12:42:30;;;;;;;3.50;2.17;;;14.50;99.90;;;;;;5054890;28;20802;-73
2024/03/03 12:44:57;;;;;;;2.20;2.03;;;14.60;99.90;;;;;;5056712;28;20225;-74
2024/03/03 12:47:24;;;;;;;2.30;2.10;;;14.70;99.90;;;;;;5060642;28;20319;-73
2024/03/03 12:49:50;;;;;;;1.95;1.85;;;14.70;99.90;;;;;;5064091;28;20761;-73
2024/03/03 12:52:19;;;;;;;6.85;2.03;;;14.70;99.90;;;;;;5065743;28;20302;-73
2024/03/03 12:54:48;;;;;;;2.50;2.17;;;14.60;99.90;;;;;;5060276;28;20301;-74
2024/03/03 12:57:15;;;;;;;3.35;2.00;;;14.60;99.90;;;;;;5070453;28;20300;-77